sensor_id;sensor_type;location;lat;lon;timestamp;pressure;altitude;pressure_sealevel;temperature;humidity
72585;BME280;73873;40.084;32.908;2024-03-08T00:01:35;89474.09;;;1.90;88.06
72585;BME280;73873;40.084;32.908;2024-03-08T00:04:06;89468.81;;;1.90;88.72
72585;BME280;73873;40.084;32.908;2024-03-08T00:06:33;89473.34;;;2.15;86.79
72585;BME280;73873;40.084;32.908;2024-03-08T00:09:00;89466.63;;;2.14;87.66
72585;BME280;73873;40.084;32.908;2024-03-08T00:11:27;89471.16;;;2.14;87.58
72585;BME280;73873;40.084;32.908;2024-03-08T00:13:54;89466.53;;;2.05;88.31
72585;BME280;73873;40.084;32.908;2024-03-08T00:16:21;89463.88;;;1.92;89.72
72585;BME280;73873;40.084;32.908;2024-03-08T00:18:48;89467.34;;;1.89;90.33
72585;BME280;73873;40.084;32.908;2024-03-08T00:21:15;89466.09;;;1.81;91.95
72585;BME280;73873;40.084;32.908;2024-03-08T00:23:42;89459.38;;;1.80;91.40
72585;BME280;73873;40.084;32.908;2024-03-08T00:26:09;89454.13;;;1.93;90.46
72585;BME280;73873;40.084;32.908;2024-03-08T00:28:36;89457.81;;;2.08;89.05
72585;BME280;73873;40.084;32.908;2024-03-08T00:31:03;89462.84;;;2.41;87.30
72585;BME280;73873;40.084;32.908;2024-03-08T00:33:30;89466.94;;;2.42;88.26
72585;BME280;73873;40.084;32.908;2024-03-08T00:35:57;89457.28;;;2.26;88.06
72585;BME280;73873;40.084;32.908;2024-03-08T00:38:24;89449.50;;;1.84;89.30
72585;BME280;73873;40.084;32.908;2024-03-08T00:40:51;89451.63;;;1.48;91.53
72585;BME280;73873;40.084;32.908;2024-03-08T00:43:18;89451.19;;;1.49;93.02
72585;BME280;73873;40.084;32.908;2024-03-08T00:45:45;89450.28;;;1.56;93.23
72585;BME280;73873;40.084;32.908;2024-03-08T00:48:12;89442.34;;;1.72;91.62
72585;BME280;73873;40.084;32.908;2024-03-08T00:50:39;89449.19;;;1.82;91.31
72585;BME280;73873;40.084;32.908;2024-03-08T00:53:06;89459.78;;;2.04;89.95
72585;BME280;73873;40.084;32.908;2024-03-08T00:55:33;89455.50;;;2.23;88.46
72585;BME280;73873;40.084;32.908;2024-03-08T00:58:00;89453.69;;;2.33;87.89
72585;BME280;73873;40.084;32.908;2024-03-08T01:00:27;89454.88;;;2.44;86.60
72585;BME280;73873;40.084;32.908;2024-03-08T01:02:54;89450.88;;;2.52;86.19
72585;BME280;73873;40.084;32.908;2024-03-08T01:05:22;89456.31;;;2.58;85.49
72585;BME280;73873;40.084;32.908;2024-03-08T01:07:49;89441.69;;;2.70;85.03
72585;BME280;73873;40.084;32.908;2024-03-08T01:10:16;89441.56;;;2.73;85.10
72585;BME280;73873;40.084;32.908;2024-03-08T01:12:43;89441.50;;;2.51;86.00
72585;BME280;73873;40.084;32.908;2024-03-08T01:15:10;89445.19;;;2.28;87.00
72585;BME280;73873;40.084;32.908;2024-03-08T01:17:38;89448.25;;;2.14;87.93
72585;BME280;73873;40.084;32.908;2024-03-08T01:20:07;89452.84;;;1.97;88.49
72585;BME280;73873;40.084;32.908;2024-03-08T01:22:35;89448.97;;;1.89;89.01
72585;BME280;73873;40.084;32.908;2024-03-08T01:25:02;89446.75;;;1.88;89.61
72585;BME280;73873;40.084;32.908;2024-03-08T01:27:29;89441.13;;;1.60;91.27
72585;BME280;73873;40.084;32.908;2024-03-08T01:29:56;89448.47;;;1.53;91.96
72585;BME280;73873;40.084;32.908;2024-03-08T01:32:23;89447.41;;;1.50;91.92
72585;BME280;73873;40.084;32.908;2024-03-08T01:34:51;89443.47;;;1.58;91.63
72585;BME280;73873;40.084;32.908;2024-03-08T01:37:18;89425.00;;;1.75;91.46
72585;BME280;73873;40.084;32.908;2024-03-08T01:39:45;89427.53;;;1.78;91.81
72585;BME280;73873;40.084;32.908;2024-03-08T01:42:11;89428.69;;;1.77;92.75
72585;BME280;73873;40.084;32.908;2024-03-08T01:44:40;89436.66;;;1.74;92.86
72585;BME280;73873;40.084;32.908;2024-03-08T01:47:07;89443.84;;;1.98;91.57
72585;BME280;73873;40.084;32.908;2024-03-08T01:49:34;89423.25;;;2.10;90.17
72585;BME280;73873;40.084;32.908;2024-03-08T01:52:03;89430.09;;;2.07;89.63
72585;BME280;73873;40.084;32.908;2024-03-08T01:54:33;89438.91;;;2.26;88.48
72585;BME280;73873;40.084;32.908;2024-03-08T01:57:00;89436.69;;;2.37;87.97
72585;BME280;73873;40.084;32.908;2024-03-08T01:59:28;89434.69;;;2.28;89.35
72585;BME280;73873;40.084;32.908;2024-03-08T02:01:55;89439.84;;;2.32;89.29
72585;BME280;73873;40.084;32.908;2024-03-08T02:04:24;89432.81;;;2.16;89.59
72585;BME280;73873;40.084;32.908;2024-03-08T02:06:51;89437.44;;;2.25;89.46
72585;BME280;73873;40.084;32.908;2024-03-08T02:09:18;89436.47;;;2.19;90.02
72585;BME280;73873;40.084;32.908;2024-03-08T02:11:46;89437.72;;;2.14;89.87
72585;BME280;73873;40.084;32.908;2024-03-08T02:14:13;89438.97;;;1.97;90.91
72585;BME280;73873;40.084;32.908;2024-03-08T02:16:40;89428.75;;;1.61;93.49
72585;BME280;73873;40.084;32.908;2024-03-08T02:19:06;89438.50;;;1.48;94.92
72585;BME280;73873;40.084;32.908;2024-03-08T02:21:33;89439.69;;;1.18;96.17
72585;BME280;73873;40.084;32.908;2024-03-08T02:24:00;89442.22;;;1.34;95.35
72585;BME280;73873;40.084;32.908;2024-03-08T02:26:28;89446.81;;;1.17;96.16
72585;BME280;73873;40.084;32.908;2024-03-08T02:28:55;89438.28;;;1.13;95.79
72585;BME280;73873;40.084;32.908;2024-03-08T02:31:22;89427.31;;;1.18;95.99
72585;BME280;73873;40.084;32.908;2024-03-08T02:33:49;89428.00;;;1.48;94.46
72585;BME280;73873;40.084;32.908;2024-03-08T02:36:16;89432.66;;;1.69;93.53
72585;BME280;73873;40.084;32.908;2024-03-08T02:38:43;89428.06;;;1.86;92.88
72585;BME280;73873;40.084;32.908;2024-03-08T02:41:10;89426.81;;;2.03;91.54
72585;BME280;73873;40.084;32.908;2024-03-08T02:43:37;89423.03;;;2.17;90.50
72585;BME280;73873;40.084;32.908;2024-03-08T02:46:04;89425.84;;;1.84;90.27
72585;BME280;73873;40.084;32.908;2024-03-08T02:48:31;89422.78;;;1.19;93.69
72585;BME280;73873;40.084;32.908;2024-03-08T02:50:58;89417.34;;;1.26;94.90
72585;BME280;73873;40.084;32.908;2024-03-08T02:53:25;89415.38;;;1.30;96.21
72585;BME280;73873;40.084;32.908;2024-03-08T02:55:52;89418.78;;;1.56;94.84
72585;BME280;73873;40.084;32.908;2024-03-08T02:58:19;89423.13;;;1.75;93.58
72585;BME280;73873;40.084;32.908;2024-03-08T03:00:46;89423.22;;;1.72;92.93
72585;BME280;73873;40.084;32.908;2024-03-08T03:03:13;89409.09;;;1.53;92.95
72585;BME280;73873;40.084;32.908;2024-03-08T03:05:40;89417.94;;;1.59;92.79
72585;BME280;73873;40.084;32.908;2024-03-08T03:08:09;89414.09;;;1.76;92.06
72585;BME280;73873;40.084;32.908;2024-03-08T03:10:37;89415.78;;;1.83;92.30
72585;BME280;73873;40.084;32.908;2024-03-08T03:13:04;89414.31;;;1.27;93.64
72585;BME280;73873;40.084;32.908;2024-03-08T03:15:31;89418.31;;;1.32;94.58
72585;BME280;73873;40.084;32.908;2024-03-08T03:17:59;89426.78;;;1.23;95.19
72585;BME280;73873;40.084;32.908;2024-03-08T03:20:26;89416.59;;;1.25;95.34
72585;BME280;73873;40.084;32.908;2024-03-08T03:22:53;89424.88;;;1.24;96.50
72585;BME280;73873;40.084;32.908;2024-03-08T03:25:21;89419.28;;;1.38;95.27
72585;BME280;73873;40.084;32.908;2024-03-08T03:27:48;89428.06;;;1.31;94.49
72585;BME280;73873;40.084;32.908;2024-03-08T03:30:15;89424.47;;;0.96;95.37
72585;BME280;73873;40.084;32.908;2024-03-08T03:32:43;89428.50;;;1.01;95.15
72585;BME280;73873;40.084;32.908;2024-03-08T03:35:10;89424.06;;;1.27;94.54
72585;BME280;73873;40.084;32.908;2024-03-08T03:37:37;89414.28;;;1.56;93.33
72585;BME280;73873;40.084;32.908;2024-03-08T03:40:04;89424.66;;;1.60;92.55
72585;BME280;73873;40.084;32.908;2024-03-08T03:42:31;89428.06;;;1.73;91.95
72585;BME280;73873;40.084;32.908;2024-03-08T03:44:58;89427.97;;;1.89;90.81
72585;BME280;73873;40.084;32.908;2024-03-08T03:47:25;89421.75;;;1.83;90.85
72585;BME280;73873;40.084;32.908;2024-03-08T03:49:52;89415.88;;;1.79;90.90
72585;BME280;73873;40.084;32.908;2024-03-08T03:52:19;89412.31;;;1.86;90.45
72585;BME280;73873;40.084;32.908;2024-03-08T03:54:46;89422.28;;;2.04;90.02
72585;BME280;73873;40.084;32.908;2024-03-08T03:57:13;89416.41;;;2.12;89.36
72585;BME280;73873;40.084;32.908;2024-03-08T03:59:40;89405.81;;;2.16;88.99
72585;BME280;73873;40.084;32.908;2024-03-08T04:02:07;89416.63;;;2.18;89.13
72585;BME280;73873;40.084;32.908;2024-03-08T04:04:34;89410.63;;;2.30;88.34
72585;BME280;73873;40.084;32.908;2024-03-08T04:07:01;89409.75;;;2.33;88.11
72585;BME280;73873;40.084;32.908;2024-03-08T04:09:28;89410.38;;;2.50;87.69
72585;BME280;73873;40.084;32.908;2024-03-08T04:11:55;89407.47;;;2.35;87.98
72585;BME280;73873;40.084;32.908;2024-03-08T04:14:23;89415.34;;;2.35;88.47
72585;BME280;73873;40.084;32.908;2024-03-08T04:16:50;89413.47;;;2.36;88.24
72585;BME280;73873;40.084;32.908;2024-03-08T04:19:17;89409.47;;;2.44;87.61
72585;BME280;73873;40.084;32.908;2024-03-08T04:21:44;89410.06;;;2.48;87.62
72585;BME280;73873;40.084;32.908;2024-03-08T04:24:11;89402.53;;;2.37;87.62
72585;BME280;73873;40.084;32.908;2024-03-08T04:26:38;89406.00;;;1.96;88.36
72585;BME280;73873;40.084;32.908;2024-03-08T04:29:05;89406.72;;;1.58;91.09
72585;BME280;73873;40.084;32.908;2024-03-08T04:31:32;89403.22;;;1.49;92.01
72585;BME280;73873;40.084;32.908;2024-03-08T04:33:59;89408.28;;;1.56;92.29
72585;BME280;73873;40.084;32.908;2024-03-08T04:36:26;89410.00;;;1.62;92.32
72585;BME280;73873;40.084;32.908;2024-03-08T04:38:53;89415.25;;;1.62;91.47
72585;BME280;73873;40.084;32.908;2024-03-08T04:41:20;89419.88;;;1.71;90.71
72585;BME280;73873;40.084;32.908;2024-03-08T04:43:47;89423.13;;;1.75;90.11
72585;BME280;73873;40.084;32.908;2024-03-08T04:46:14;89419.13;;;1.83;90.03
72585;BME280;73873;40.084;32.908;2024-03-08T04:48:41;89418.91;;;1.78;90.96
72585;BME280;73873;40.084;32.908;2024-03-08T04:51:08;89425.75;;;1.75;92.13
72585;BME280;73873;40.084;32.908;2024-03-08T04:53:35;89424.47;;;1.80;92.90
72585;BME280;73873;40.084;32.908;2024-03-08T04:56:06;89416.59;;;1.80;92.86
72585;BME280;73873;40.084;32.908;2024-03-08T04:58:36;89424.19;;;1.90;93.15
72585;BME280;73873;40.084;32.908;2024-03-08T05:01:03;89434.88;;;1.96;92.58
72585;BME280;73873;40.084;32.908;2024-03-08T05:03:30;89429.31;;;2.07;92.10
72585;BME280;73873;40.084;32.908;2024-03-08T05:05:57;89441.00;;;2.06;92.19
72585;BME280;73873;40.084;32.908;2024-03-08T05:08:24;89450.69;;;1.25;95.46
72585;BME280;73873;40.084;32.908;2024-03-08T05:10:51;89444.41;;;0.94;97.87
72585;BME280;73873;40.084;32.908;2024-03-08T05:13:18;89456.31;;;0.82;99.42
72585;BME280;73873;40.084;32.908;2024-03-08T05:15:48;89458.66;;;0.93;100.00
72585;BME280;73873;40.084;32.908;2024-03-08T05:18:15;89461.06;;;1.16;100.00
72585;BME280;73873;40.084;32.908;2024-03-08T05:20:43;89455.59;;;1.39;99.14
72585;BME280;73873;40.084;32.908;2024-03-08T05:23:10;89456.06;;;1.63;98.10
72585;BME280;73873;40.084;32.908;2024-03-08T05:25:37;89449.50;;;1.97;97.42
72585;BME280;73873;40.084;32.908;2024-03-08T05:28:04;89458.03;;;2.26;96.30
72585;BME280;73873;40.084;32.908;2024-03-08T05:30:32;89447.19;;;2.63;94.61
72585;BME280;73873;40.084;32.908;2024-03-08T05:32:59;89451.88;;;2.80;93.80
72585;BME280;73873;40.084;32.908;2024-03-08T05:35:26;89448.03;;;2.94;92.67
72585;BME280;73873;40.084;32.908;2024-03-08T05:37:53;89453.09;;;3.23;91.95
72585;BME280;73873;40.084;32.908;2024-03-08T05:40:20;89462.66;;;3.30;90.19
72585;BME280;73873;40.084;32.908;2024-03-08T05:42:49;89458.50;;;3.20;87.28
72585;BME280;73873;40.084;32.908;2024-03-08T05:45:16;89462.31;;;2.59;90.62
72585;BME280;73873;40.084;32.908;2024-03-08T05:47:43;89458.31;;;2.41;92.29
72585;BME280;73873;40.084;32.908;2024-03-08T05:50:10;89465.69;;;2.21;93.73
72585;BME280;73873;40.084;32.908;2024-03-08T05:52:37;89476.59;;;2.07;93.43
72585;BME280;73873;40.084;32.908;2024-03-08T05:55:04;89462.22;;;2.11;93.64
72585;BME280;73873;40.084;32.908;2024-03-08T05:57:31;89467.47;;;2.24;93.92
72585;BME280;73873;40.084;32.908;2024-03-08T05:59:58;89459.91;;;2.39;93.07
72585;BME280;73873;40.084;32.908;2024-03-08T06:02:25;89466.84;;;2.33;92.07
72585;BME280;73873;40.084;32.908;2024-03-08T06:04:52;89463.72;;;2.25;93.24
72585;BME280;73873;40.084;32.908;2024-03-08T06:07:19;89461.81;;;2.25;94.05
72585;BME280;73873;40.084;32.908;2024-03-08T06:09:46;89471.06;;;2.43;94.59
72585;BME280;73873;40.084;32.908;2024-03-08T06:12:13;89471.38;;;2.45;94.38
72585;BME280;73873;40.084;32.908;2024-03-08T06:14:40;89471.25;;;2.48;95.49
72585;BME280;73873;40.084;32.908;2024-03-08T06:17:07;89480.19;;;2.51;96.18
72585;BME280;73873;40.084;32.908;2024-03-08T06:19:34;89470.94;;;2.46;95.52
72585;BME280;73873;40.084;32.908;2024-03-08T06:22:01;89472.22;;;2.54;95.50
72585;BME280;73873;40.084;32.908;2024-03-08T06:24:28;89476.16;;;2.84;95.66
72585;BME280;73873;40.084;32.908;2024-03-08T06:26:55;89462.44;;;3.02;94.51
72585;BME280;73873;40.084;32.908;2024-03-08T06:29:22;89466.00;;;3.08;94.67
72585;BME280;73873;40.084;32.908;2024-03-08T06:31:49;89468.81;;;3.14;93.84
72585;BME280;73873;40.084;32.908;2024-03-08T06:34:19;89461.06;;;3.10;93.61
72585;BME280;73873;40.084;32.908;2024-03-08T06:36:46;89453.16;;;3.10;94.19
72585;BME280;73873;40.084;32.908;2024-03-08T06:39:13;89462.81;;;3.13;94.67
72585;BME280;73873;40.084;32.908;2024-03-08T06:41:40;89472.50;;;3.17;94.51
72585;BME280;73873;40.084;32.908;2024-03-08T06:44:08;89470.31;;;3.15;93.33
72585;BME280;73873;40.084;32.908;2024-03-08T06:46:35;89472.03;;;3.31;93.46
72585;BME280;73873;40.084;32.908;2024-03-08T06:49:02;89477.56;;;3.46;93.17
72585;BME280;73873;40.084;32.908;2024-03-08T06:51:29;89479.41;;;3.58;93.23
72585;BME280;73873;40.084;32.908;2024-03-08T06:53:56;89469.59;;;3.58;92.73
72585;BME280;73873;40.084;32.908;2024-03-08T06:56:23;89466.91;;;3.71;92.48
72585;BME280;73873;40.084;32.908;2024-03-08T06:58:50;89471.06;;;3.81;90.73
72585;BME280;73873;40.084;32.908;2024-03-08T07:01:17;89472.78;;;3.97;90.00
72585;BME280;73873;40.084;32.908;2024-03-08T07:03:44;89474.13;;;4.02;90.31
72585;BME280;73873;40.084;32.908;2024-03-08T07:06:11;89469.63;;;4.11;89.13
72585;BME280;73873;40.084;32.908;2024-03-08T07:08:39;89470.84;;;4.19;88.50
72585;BME280;73873;40.084;32.908;2024-03-08T07:11:06;89470.16;;;4.28;88.22
72585;BME280;73873;40.084;32.908;2024-03-08T07:13:34;89464.91;;;4.37;85.60
72585;BME280;73873;40.084;32.908;2024-03-08T07:16:01;89460.69;;;4.40;82.31
72585;BME280;73873;40.084;32.908;2024-03-08T07:18:28;89456.53;;;4.30;80.31
72585;BME280;73873;40.084;32.908;2024-03-08T07:20:55;89453.59;;;4.27;82.64
72585;BME280;73873;40.084;32.908;2024-03-08T07:23:22;89462.75;;;4.05;85.05
72585;BME280;73873;40.084;32.908;2024-03-08T07:25:49;89459.19;;;3.98;83.04
72585;BME280;73873;40.084;32.908;2024-03-08T07:28:16;89453.78;;;4.02;85.25
72585;BME280;73873;40.084;32.908;2024-03-08T07:30:43;89455.72;;;4.11;85.55
72585;BME280;73873;40.084;32.908;2024-03-08T07:33:11;89457.19;;;4.43;84.91
72585;BME280;73873;40.084;32.908;2024-03-08T07:35:43;89456.41;;;4.73;82.06
72585;BME280;73873;40.084;32.908;2024-03-08T07:38:10;89449.84;;;4.87;81.33
72585;BME280;73873;40.084;32.908;2024-03-08T07:40:41;89446.97;;;5.22;80.36
72585;BME280;73873;40.084;32.908;2024-03-08T07:43:08;89446.66;;;5.38;78.34
72585;BME280;73873;40.084;32.908;2024-03-08T07:45:35;89447.84;;;5.37;76.53
72585;BME280;73873;40.084;32.908;2024-03-08T07:48:03;89440.34;;;5.63;74.80
72585;BME280;73873;40.084;32.908;2024-03-08T07:50:30;89441.53;;;5.62;74.76
72585;BME280;73873;40.084;32.908;2024-03-08T07:52:57;89441.69;;;5.67;74.65
72585;BME280;73873;40.084;32.908;2024-03-08T07:55:24;89446.94;;;5.86;73.54
72585;BME280;73873;40.084;32.908;2024-03-08T07:57:52;89431.38;;;6.06;73.07
72585;BME280;73873;40.084;32.908;2024-03-08T08:00:19;89433.22;;;6.24;71.39
72585;BME280;73873;40.084;32.908;2024-03-08T08:02:46;89430.25;;;6.64;71.76
72585;BME280;73873;40.084;32.908;2024-03-08T08:05:13;89435.78;;;6.85;69.85
72585;BME280;73873;40.084;32.908;2024-03-08T08:07:44;89429.03;;;6.83;70.14
72585;BME280;73873;40.084;32.908;2024-03-08T08:10:12;89421.13;;;6.98;69.14
72585;BME280;73873;40.084;32.908;2024-03-08T08:12:39;89418.31;;;7.26;70.06
72585;BME280;73873;40.084;32.908;2024-03-08T08:15:07;89415.38;;;7.00;67.23
72585;BME280;73873;40.084;32.908;2024-03-08T08:17:34;89421.81;;;6.84;70.27
72585;BME280;73873;40.084;32.908;2024-03-08T08:20:01;89416.88;;;6.92;70.11
72585;BME280;73873;40.084;32.908;2024-03-08T08:22:28;89409.66;;;7.01;69.92
72585;BME280;73873;40.084;32.908;2024-03-08T08:24:55;89407.28;;;7.42;69.10
72585;BME280;73873;40.084;32.908;2024-03-08T08:27:22;89410.00;;;7.86;69.37
72585;BME280;73873;40.084;32.908;2024-03-08T08:29:49;89406.31;;;7.54;66.13
72585;BME280;73873;40.084;32.908;2024-03-08T08:32:16;89403.25;;;7.08;67.14
72585;BME280;73873;40.084;32.908;2024-03-08T08:34:44;89396.53;;;6.83;67.44
72585;BME280;73873;40.084;32.908;2024-03-08T08:37:11;89397.91;;;6.69;69.40
72585;BME280;73873;40.084;32.908;2024-03-08T08:39:38;89406.34;;;6.59;70.50
72585;BME280;73873;40.084;32.908;2024-03-08T08:42:05;89395.44;;;6.66;69.70
72585;BME280;73873;40.084;32.908;2024-03-08T08:44:32;89397.19;;;6.93;70.33
72585;BME280;73873;40.084;32.908;2024-03-08T08:46:59;89388.56;;;7.31;66.81
72585;BME280;73873;40.084;32.908;2024-03-08T08:49:38;89392.72;;;7.61;66.29
72585;BME280;73873;40.084;32.908;2024-03-08T08:52:05;89386.88;;;7.72;67.00
72585;BME280;73873;40.084;32.908;2024-03-08T08:54:43;89385.63;;;7.82;64.88
72585;BME280;73873;40.084;32.908;2024-03-08T08:57:11;89393.28;;;7.80;68.33
72585;BME280;73873;40.084;32.908;2024-03-08T08:59:38;89387.63;;;7.87;66.98
72585;BME280;73873;40.084;32.908;2024-03-08T09:02:08;89390.38;;;7.93;67.30
72585;BME280;73873;40.084;32.908;2024-03-08T09:04:39;89392.06;;;8.25;68.31
72585;BME280;73873;40.084;32.908;2024-03-08T09:07:06;89387.69;;;8.08;65.91
72585;BME280;73873;40.084;32.908;2024-03-08T09:09:33;89379.38;;;8.30;67.06
72585;BME280;73873;40.084;32.908;2024-03-08T09:12:00;89383.81;;;8.53;66.46
72585;BME280;73873;40.084;32.908;2024-03-08T09:14:27;89375.75;;;8.62;63.56
72585;BME280;73873;40.084;32.908;2024-03-08T09:16:54;89382.31;;;8.81;65.35
72585;BME280;73873;40.084;32.908;2024-03-08T09:19:21;89376.34;;;9.07;63.17
72585;BME280;73873;40.084;32.908;2024-03-08T09:21:47;89380.00;;;9.09;64.65
72585;BME280;73873;40.084;32.908;2024-03-08T09:24:14;89380.88;;;9.21;63.84
72585;BME280;73873;40.084;32.908;2024-03-08T09:26:41;89370.44;;;9.18;62.62
72585;BME280;73873;40.084;32.908;2024-03-08T09:29:08;89377.81;;;9.08;63.21
72585;BME280;73873;40.084;32.908;2024-03-08T09:31:35;89365.47;;;8.70;61.09
72585;BME280;73873;40.084;32.908;2024-03-08T09:34:02;89354.19;;;9.10;60.86
72585;BME280;73873;40.084;32.908;2024-03-08T09:36:29;89356.59;;;9.54;61.24
72585;BME280;73873;40.084;32.908;2024-03-08T09:38:56;89368.72;;;9.61;59.66
72585;BME280;73873;40.084;32.908;2024-03-08T09:41:23;89360.00;;;9.14;58.59
72585;BME280;73873;40.084;32.908;2024-03-08T09:43:50;89350.44;;;8.81;61.59
72585;BME280;73873;40.084;32.908;2024-03-08T09:46:19;89358.22;;;9.05;62.13
72585;BME280;73873;40.084;32.908;2024-03-08T09:48:46;89346.47;;;9.12;60.52
72585;BME280;73873;40.084;32.908;2024-03-08T09:51:13;89354.47;;;9.58;61.66
72585;BME280;73873;40.084;32.908;2024-03-08T09:53:41;89340.28;;;9.67;58.78
72585;BME280;73873;40.084;32.908;2024-03-08T09:56:08;89337.47;;;9.76;57.61
72585;BME280;73873;40.084;32.908;2024-03-08T09:58:35;89335.69;;;9.93;60.25
72585;BME280;73873;40.084;32.908;2024-03-08T10:01:03;89331.41;;;10.33;59.32
72585;BME280;73873;40.084;32.908;2024-03-08T10:03:30;89318.88;;;10.34;56.48
72585;BME280;73873;40.084;32.908;2024-03-08T10:05:57;89314.25;;;10.03;56.95
72585;BME280;73873;40.084;32.908;2024-03-08T10:08:25;89320.03;;;10.27;58.54
72585;BME280;73873;40.084;32.908;2024-03-08T10:10:52;89307.47;;;10.33;58.02
72585;BME280;73873;40.084;32.908;2024-03-08T10:13:19;89303.72;;;10.19;58.29
72585;BME280;73873;40.084;32.908;2024-03-08T10:15:46;89301.28;;;9.84;56.82
72585;BME280;73873;40.084;32.908;2024-03-08T10:18:13;89290.41;;;9.88;56.84
72585;BME280;73873;40.084;32.908;2024-03-08T10:20:40;89289.28;;;9.68;58.39
72585;BME280;73873;40.084;32.908;2024-03-08T10:23:08;89296.19;;;9.81;58.06
72585;BME280;73873;40.084;32.908;2024-03-08T10:25:38;89287.03;;;9.87;59.26
72585;BME280;73873;40.084;32.908;2024-03-08T10:28:05;89290.38;;;10.14;57.97
72585;BME280;73873;40.084;32.908;2024-03-08T10:30:32;89284.38;;;10.19;55.92
72585;BME280;73873;40.084;32.908;2024-03-08T10:32:59;89282.81;;;9.75;56.88
72585;BME280;73873;40.084;32.908;2024-03-08T10:35:26;89282.78;;;9.44;57.24
72585;BME280;73873;40.084;32.908;2024-03-08T10:37:56;89288.56;;;9.42;57.91
72585;BME280;73873;40.084;32.908;2024-03-08T10:40:24;89280.28;;;9.60;57.74
72585;BME280;73873;40.084;32.908;2024-03-08T10:42:56;89279.84;;;9.42;57.32
72585;BME280;73873;40.084;32.908;2024-03-08T10:45:31;89269.47;;;9.70;57.42
72585;BME280;73873;40.084;32.908;2024-03-08T10:48:15;89263.50;;;10.12;54.16
72585;BME280;73873;40.084;32.908;2024-03-08T10:50:44;89255.66;;;10.29;54.27
72585;BME280;73873;40.084;32.908;2024-03-08T10:53:14;89250.88;;;10.38;54.68
72585;BME280;73873;40.084;32.908;2024-03-08T10:55:42;89247.63;;;10.66;55.33
72585;BME280;73873;40.084;32.908;2024-03-08T10:58:10;89243.63;;;10.93;53.63
72585;BME280;73873;40.084;32.908;2024-03-08T11:00:38;89243.22;;;11.17;53.86
72585;BME280;73873;40.084;32.908;2024-03-08T11:03:05;89243.91;;;11.12;51.85
72585;BME280;73873;40.084;32.908;2024-03-08T11:05:37;89234.09;;;10.75;51.61
72585;BME280;73873;40.084;32.908;2024-03-08T11:10:53;89239.50;;;9.69;53.55
72585;BME280;73873;40.084;32.908;2024-03-08T11:16:01;89229.25;;;9.30;55.61
72585;BME280;73873;40.084;32.908;2024-03-08T11:18:28;89241.94;;;8.95;56.84
72585;BME280;73873;40.084;32.908;2024-03-08T11:20:55;89243.22;;;8.79;58.66
72585;BME280;73873;40.084;32.908;2024-03-08T11:23:22;89250.19;;;8.76;58.10
72585;BME280;73873;40.084;32.908;2024-03-08T11:25:50;89239.31;;;8.74;58.72
72585;BME280;73873;40.084;32.908;2024-03-08T11:28:19;89244.50;;;8.63;58.94
72585;BME280;73873;40.084;32.908;2024-03-08T11:33:35;89264.88;;;7.37;75.16
72585;BME280;73873;40.084;32.908;2024-03-08T11:38:42;89285.81;;;6.58;73.89
72585;BME280;73873;40.084;32.908;2024-03-08T11:41:10;89288.75;;;6.60;81.74
72585;BME280;73873;40.084;32.908;2024-03-08T11:43:42;89291.19;;;6.48;82.00
72585;BME280;73873;40.084;32.908;2024-03-08T11:46:10;89291.19;;;6.48;84.85
72585;BME280;73873;40.084;32.908;2024-03-08T11:48:39;89293.41;;;6.65;83.26
72585;BME280;73873;40.084;32.908;2024-03-08T11:51:06;89272.94;;;6.89;81.81
72585;BME280;73873;40.084;32.908;2024-03-08T11:53:34;89256.50;;;6.85;81.97
72585;BME280;73873;40.084;32.908;2024-03-08T11:56:09;89239.09;;;7.08;81.93
72585;BME280;73873;40.084;32.908;2024-03-08T11:58:37;89230.97;;;7.41;79.03
72585;BME280;73873;40.084;32.908;2024-03-08T12:01:08;89224.06;;;7.79;78.80
72585;BME280;73873;40.084;32.908;2024-03-08T12:03:36;89219.19;;;8.27;70.88
72585;BME280;73873;40.084;32.908;2024-03-08T12:06:03;89222.88;;;8.50;69.40
72585;BME280;73873;40.084;32.908;2024-03-08T12:08:31;89211.78;;;8.98;69.95
72585;BME280;73873;40.084;32.908;2024-03-08T12:10:58;89200.69;;;9.25;65.92
72585;BME280;73873;40.084;32.908;2024-03-08T12:13:27;89194.56;;;9.39;63.21
72585;BME280;73873;40.084;32.908;2024-03-08T12:15:54;89197.00;;;9.75;65.50
72585;BME280;73873;40.084;32.908;2024-03-08T12:18:21;89198.56;;;9.92;62.88
72585;BME280;73873;40.084;32.908;2024-03-08T12:20:48;89192.38;;;10.07;63.72
72585;BME280;73873;40.084;32.908;2024-03-08T12:23:15;89186.56;;;9.39;65.25
72585;BME280;73873;40.084;32.908;2024-03-08T12:25:42;89189.94;;;9.08;66.45
72585;BME280;73873;40.084;32.908;2024-03-08T12:28:10;89192.06;;;9.30;69.74
72585;BME280;73873;40.084;32.908;2024-03-08T12:30:56;89180.59;;;9.45;64.55
72585;BME280;73873;40.084;32.908;2024-03-08T12:33:23;89180.59;;;9.45;65.06
72585;BME280;73873;40.084;32.908;2024-03-08T12:35:54;89181.50;;;9.42;63.34
72585;BME280;73873;40.084;32.908;2024-03-08T12:38:23;89176.50;;;9.86;65.82
72585;BME280;73873;40.084;32.908;2024-03-08T12:40:51;89178.34;;;10.12;60.04
72585;BME280;73873;40.084;32.908;2024-03-08T12:43:21;89172.56;;;9.71;64.12
72585;BME280;73873;40.084;32.908;2024-03-08T12:45:48;89166.66;;;9.61;63.14
72585;BME280;73873;40.084;32.908;2024-03-08T12:48:15;89166.84;;;9.52;62.83
72585;BME280;73873;40.084;32.908;2024-03-08T12:50:42;89172.88;;;9.47;64.27
72585;BME280;73873;40.084;32.908;2024-03-08T12:53:09;89166.00;;;9.34;64.54
72585;BME280;73873;40.084;32.908;2024-03-08T12:55:36;89171.16;;;9.44;63.98
72585;BME280;73873;40.084;32.908;2024-03-08T12:58:03;89162.81;;;9.30;66.30
72585;BME280;73873;40.084;32.908;2024-03-08T13:00:30;89164.09;;;9.09;65.41
72585;BME280;73873;40.084;32.908;2024-03-08T13:02:57;89160.50;;;9.12;69.39
72585;BME280;73873;40.084;32.908;2024-03-08T13:05:24;89158.81;;;9.15;68.21
72585;BME280;73873;40.084;32.908;2024-03-08T13:07:51;89157.06;;;9.06;66.36
72585;BME280;73873;40.084;32.908;2024-03-08T13:10:18;89152.75;;;8.82;68.90
72585;BME280;73873;40.084;32.908;2024-03-08T13:12:45;89159.56;;;8.63;71.05